Time;durP1;ratioP1;P1;durP2;ratioP2;P2;SDS_P1;SDS_P2;PMS_P1;PMS_P2;Temp;Humidity;BMP_temperature;BMP_pressure;BME280_temperature;BME280_humidity;BME280_pressure;Samples;Min_cycle;Max_cycle;Signal;HPM_P1;HPM_P2
2023/06/02 00:01:01;;;;;;;3.97;1.67;;;13.10;28.50;;;;;;5115088;28;20509;-76
2023/06/02 00:03:32;;;;;;;3.83;2.47;;;13.00;1.00;;;;;;5116400;28;20646;-75
2023/06/02 00:06:01;;;;;;;4.77;1.80;;;13.00;1.00;;;;;;5115677;28;20223;-76
2023/06/02 00:08:28;;;;;;;3.63;1.70;;;13.00;1.00;;;;;;5115891;28;20282;-76
2023/06/02 00:10:54;;;;;;;4.43;2.03;;;13.10;72.30;;;;;;5116044;28;20181;-76
2023/06/02 00:13:20;;;;;;;4.27;2.20;;;13.00;10.40;;;;;;5117103;28;20181;-76
2023/06/02 00:15:47;;;;;;;8.10;2.13;;;13.00;1.00;;;;;;5115541;28;20650;-76
2023/06/02 00:18:13;;;;;;;5.23;2.17;;;13.00;1.00;;;;;;5117280;28;20170;-75
2023/06/02 00:20:39;;;;;;;4.57;2.10;;;12.90;1.00;;;;;;5116900;28;20252;-76
2023/06/02 00:23:08;;;;;;;7.43;2.27;;;13.00;1.00;;;;;;5117518;28;20657;-76
2023/06/02 00:25:34;;;;;;;5.97;2.10;;;12.90;1.00;;;;;;5117284;28;20190;-76
2023/06/02 00:27:59;;;;;;;5.07;2.20;;;12.90;1.00;;;;;;5117133;28;20262;-76
2023/06/02 00:30:26;;;;;;;3.73;2.13;;;12.80;99.90;;;;;;5116402;28;20178;-76
2023/06/02 00:32:52;;;;;;;4.17;2.30;;;12.80;99.90;;;;;;5116816;28;20193;-76
2023/06/02 00:35:18;;;;;;;6.67;2.53;;;12.80;99.90;;;;;;5115658;28;20224;-76
2023/06/02 00:37:43;;;;;;;4.33;2.20;;;12.80;99.90;;;;;;5116509;28;20187;-76
2023/06/02 00:40:09;;;;;;;9.80;2.33;;;12.80;1.00;;;;;;5116606;28;20178;-75
2023/06/02 00:42:35;;;;;;;3.57;2.13;;;12.80;99.90;;;;;;5116307;28;20200;-76
2023/06/02 00:45:01;;;;;;;5.97;1.77;;;12.70;99.90;;;;;;5116378;28;20250;-76
2023/06/02 00:47:26;;;;;;;6.63;2.50;;;12.70;99.90;;;;;;5114342;28;20201;-76
2023/06/02 00:49:52;;;;;;;6.10;2.40;;;12.70;99.90;;;;;;5115902;28;20252;-76
2023/06/02 00:52:19;;;;;;;4.57;2.00;;;12.50;99.90;;;;;;5116079;28;20231;-76
2023/06/02 00:54:45;;;;;;;4.43;1.90;;;12.60;99.90;;;;;;5115545;28;20173;-76
2023/06/02 00:57:10;;;;;;;7.30;2.30;;;12.60;99.90;;;;;;5115710;28;20166;-76
2023/06/02 00:59:39;;;;;;;4.20;2.10;;;12.60;99.90;;;;;;5114250;28;20638;-76
2023/06/02 01:02:05;;;;;;;11.03;3.20;;;12.50;1.00;;;;;;5114568;28;20178;-76
2023/06/02 01:04:31;;;;;;;3.70;1.90;;;12.50;1.00;;;;;;5114252;28;20678;-76
2023/06/02 01:07:02;;;;;;;7.33;2.57;;;12.50;1.00;;;;;;5115519;28;20193;-76
2023/06/02 01:09:28;;;;;;;7.43;2.20;;;12.50;1.00;;;;;;5114071;28;20170;-76
2023/06/02 01:11:55;;;;;;;8.73;2.63;;;12.60;99.90;;;;;;5113929;28;20177;-76
2023/06/02 01:14:20;;;;;;;9.00;2.73;;;12.50;1.00;;;;;;5113808;28;20180;-76
2023/06/02 01:16:49;;;;;;;4.60;2.30;;;12.40;99.90;;;;;;5115393;28;20535;-76
2023/06/02 01:19:20;;;;;;;5.50;2.30;;;12.40;1.00;;;;;;5114867;28;20169;-76
2023/06/02 01:21:57;;;;;;;5.87;2.67;;;12.50;1.00;;;;;;5113282;28;20530;-76
2023/06/02 01:24:44;;;;;;;6.93;2.10;;;12.50;1.00;;;;;;5114962;28;20189;-75
2023/06/02 01:27:15;;;;;;;9.27;2.37;;;12.50;1.00;;;;;;5113598;28;20300;-76
2023/06/02 01:29:42;;;;;;;4.67;2.30;;;12.40;1.00;;;;;;5115036;27;20150;-76
2023/06/02 01:32:27;;;;;;;5.80;2.30;;;12.40;1.00;;;;;;5115273;28;20166;-76
2023/06/02 01:35:03;;;;;;;5.43;2.53;;;12.40;1.00;;;;;;5114234;28;20162;-75
2023/06/02 01:37:32;;;;;;;9.13;2.47;;;12.40;1.00;;;;;;5115818;28;20574;-76
2023/06/02 01:40:01;;;;;;;8.77;2.40;;;12.40;1.00;;;;;;5114033;28;20742;-76
2023/06/02 01:42:27;;;;;;;5.53;2.40;;;12.40;1.00;;;;;;5114558;28;20173;-76
2023/06/02 01:44:53;;;;;;;7.87;2.80;;;12.40;1.00;;;;;;5113667;28;20196;-76
2023/06/02 01:47:19;;;;;;;8.37;2.73;;;12.30;1.00;;;;;;5114893;28;20205;-76
2023/06/02 01:49:44;;;;;;;6.27;2.80;;;12.30;1.00;;;;;;5115193;28;20302;-76
2023/06/02 01:52:10;;;;;;;6.43;3.00;;;12.30;1.00;;;;;;5114155;28;20177;-76
2023/06/02 01:54:36;;;;;;;7.73;3.10;;;12.20;1.00;;;;;;5115622;28;20173;-76
2023/06/02 01:57:02;;;;;;;5.87;2.17;;;12.20;99.90;;;;;;5113834;28;20202;-76
2023/06/02 01:59:28;;;;;;;7.87;2.50;;;12.30;1.00;;;;;;5115473;28;20180;-75
2023/06/02 02:01:53;;;;;;;7.27;2.43;;;12.20;1.00;;;;;;5113887;28;20181;-76
2023/06/02 02:04:20;;;;;;;7.13;2.43;;;12.20;99.90;;;;;;5115518;28;20252;-75
2023/06/02 02:06:49;;;;;;;10.13;2.97;;;12.20;99.90;;;;;;5113767;28;20682;-76
2023/06/02 02:09:15;;;;;;;9.90;2.70;;;12.20;1.00;;;;;;5113625;28;20174;-76
2023/06/02 02:11:40;;;;;;;7.87;2.80;;;12.20;1.00;;;;;;5114945;28;20272;-76
2023/06/02 02:14:06;;;;;;;7.20;2.53;;;12.10;99.90;;;;;;5114321;28;20174;-76
2023/06/02 02:16:31;;;;;;;8.47;3.20;;;12.10;1.00;;;;;;5113311;28;20266;-76
2023/06/02 02:18:58;;;;;;;4.57;2.47;;;12.10;1.00;;;;;;5114426;28;20177;-76
2023/06/02 02:21:28;;;;;;;5.90;2.20;;;12.10;1.00;;;;;;5114957;28;20512;-76
2023/06/02 02:23:54;;;;;;;4.80;1.93;;;12.10;1.00;;;;;;5114152;28;20225;-75
2023/06/02 02:26:20;;;;;;;6.37;2.50;;;12.10;1.00;;;;;;5114751;28;20243;-76
2023/06/02 02:28:46;;;;;;;7.20;2.80;;;12.10;1.00;;;;;;5114445;28;20567;-76
2023/06/02 02:31:11;;;;;;;8.90;2.67;;;12.10;99.90;;;;;;5114372;28;20174;-76
2023/06/02 02:33:38;;;;;;;9.53;2.90;;;12.00;99.90;;;;;;5112944;28;20169;-76
2023/06/02 02:36:04;;;;;;;8.57;2.87;;;12.00;99.90;;;;;;5114000;28;20197;-76
2023/06/02 02:38:29;;;;;;;7.80;3.13;;;11.90;94.60;;;;;;5113182;28;20173;-75
2023/06/02 02:40:55;;;;;;;11.07;3.90;;;11.90;99.90;;;;;;5113709;28;20711;-76
2023/06/02 02:43:21;;;;;;;9.60;3.90;;;11.90;99.90;;;;;;5112770;28;20177;-76
2023/06/02 02:45:47;;;;;;;8.80;3.13;;;11.90;99.90;;;;;;5114118;28;20189;-76
2023/06/02 02:48:12;;;;;;;7.10;3.13;;;11.90;99.90;;;;;;5112818;28;20201;-75
2023/06/02 02:50:38;;;;;;;7.43;3.50;;;11.90;99.90;;;;;;5113828;28;20347;-76
2023/06/02 02:53:03;;;;;;;12.83;3.87;;;11.90;1.00;;;;;;5113887;28;20170;-76
2023/06/02 02:55:32;;;;;;;8.13;3.97;;;11.90;1.00;;;;;;5113562;28;20177;-76
2023/06/02 02:57:59;;;;;;;11.73;4.00;;;11.90;99.90;;;;;;5113583;28;20642;-76
2023/06/02 03:00:25;;;;;;;9.00;4.67;;;11.90;99.90;;;;;;5113779;28;20180;-76
2023/06/02 03:02:51;;;;;;;10.93;4.00;;;11.90;99.90;;;;;;5113640;28;20165;-76
2023/06/02 03:05:16;;;;;;;10.67;3.80;;;11.80;1.00;;;;;;5112591;28;20274;-76
2023/06/02 03:07:44;;;;;;;6.40;3.43;;;11.80;1.00;;;;;;5113564;28;20701;-75
2023/06/02 03:10:10;;;;;;;9.80;3.53;;;11.80;99.90;;;;;;5112225;28;20169;-75
2023/06/02 03:12:36;;;;;;;10.37;4.23;;;11.70;99.90;;;;;;5113012;28;20535;-76
2023/06/02 03:15:01;;;;;;;11.83;3.97;;;11.60;1.00;;;;;;5112410;28;20276;-75
2023/06/02 03:17:27;;;;;;;13.67;4.17;;;11.60;99.90;;;;;;5113762;28;20226;-75
2023/06/02 03:19:56;;;;;;;9.90;3.70;;;11.70;99.90;;;;;;5112145;28;20217;-76
2023/06/02 03:22:22;;;;;;;9.47;3.80;;;11.70;99.90;;;;;;5113447;28;20181;-76
2023/06/02 03:24:51;;;;;;;8.63;2.73;;;11.70;99.90;;;;;;5113333;28;20195;-75
2023/06/02 03:27:18;;;;;;;10.07;3.40;;;11.70;99.90;;;;;;5112222;28;20739;-76
2023/06/02 03:29:44;;;;;;;7.63;3.10;;;11.70;99.90;;;;;;5112321;28;20557;-76
2023/06/02 03:32:11;;;;;;;7.93;2.93;;;11.60;99.90;;;;;;5113285;28;20173;-76
2023/06/02 03:34:39;;;;;;;11.93;2.90;;;11.70;99.90;;;;;;5113489;28;20166;-76
2023/06/02 03:37:08;;;;;;;8.90;2.60;;;11.60;99.90;;;;;;5113194;28;20180;-76
2023/06/02 03:39:34;;;;;;;13.13;3.30;;;11.60;99.90;;;;;;5112233;28;20204;-75
2023/06/02 03:41:59;;;;;;;8.07;3.33;;;11.60;99.90;;;;;;5113075;28;20170;-76
2023/06/02 03:44:25;;;;;;;7.83;2.60;;;11.70;99.90;;;;;;5111706;28;20276;-76
2023/06/02 03:46:50;;;;;;;11.33;3.00;;;11.70;99.90;;;;;;5112019;28;20292;-76
2023/06/02 03:49:16;;;;;;;9.40;2.40;;;11.70;99.90;;;;;;5112165;28;20688;-76
2023/06/02 03:51:46;;;;;;;6.97;2.33;;;11.60;99.90;;;;;;5113004;28;20200;-76
2023/06/02 03:54:12;;;;;;;7.13;2.63;;;11.60;1.00;;;;;;5112035;28;20154;-75
2023/06/02 03:56:38;;;;;;;18.07;3.77;;;11.70;1.00;;;;;;5113601;28;20682;-76
2023/06/02 03:59:03;;;;;;;7.60;2.50;;;11.60;1.00;;;;;;5112446;28;20174;-76
2023/06/02 04:01:29;;;;;;;10.23;2.60;;;11.60;99.90;;;;;;5111820;28;20173;-76
2023/06/02 04:03:54;;;;;;;9.53;2.93;;;11.70;1.00;;;;;;5111850;28;20177;-76
2023/06/02 04:06:21;;;;;;;9.80;3.07;;;11.70;1.00;;;;;;5111917;28;20190;-76
2023/06/02 04:08:46;;;;;;;13.50;3.27;;;11.60;1.00;;;;;;5113292;28;20280;-76
2023/06/02 04:11:12;;;;;;;7.23;2.90;;;11.60;99.90;;;;;;5116765;28;20246;-76
2023/06/02 04:13:38;;;;;;;9.23;2.70;;;11.60;99.90;;;;;;5115580;28;20614;-76
2023/06/02 04:16:04;;;;;;;11.77;3.23;;;11.60;99.90;;;;;;5115173;28;20219;-76
2023/06/02 04:18:31;;;;;;;9.83;3.33;;;11.60;99.90;;;;;;5116347;28;20209;-76
2023/06/02 04:20:57;;;;;;;10.53;3.53;;;11.60;99.90;;;;;;5116657;28;20174;-76
2023/06/02 04:23:23;;;;;;;10.30;3.13;;;11.60;99.90;;;;;;5117002;28;20204;-76
2023/06/02 04:25:49;;;;;;;10.70;3.20;;;11.60;99.90;;;;;;5115349;28;20256;-75
2023/06/02 04:28:15;;;;;;;9.47;2.63;;;11.60;99.90;;;;;;5117149;28;20197;-76
2023/06/02 04:30:40;;;;;;;8.70;3.23;;;11.60;99.90;;;;;;5117408;28;20166;-75
2023/06/02 04:33:06;;;;;;;11.57;3.93;;;11.60;1.00;;;;;;5116961;28;20169;-76
2023/06/02 04:35:32;;;;;;;10.00;3.63;;;11.60;99.90;;;;;;5116792;28;20196;-75
2023/06/02 04:37:58;;;;;;;11.27;4.10;;;11.60;99.90;;;;;;5115654;28;20173;-75
2023/06/02 04:40:24;;;;;;;11.03;4.47;;;11.70;1.00;;;;;;5116654;28;20173;-76
2023/06/02 04:42:49;;;;;;;8.37;4.17;;;11.70;1.00;;;;;;5109731;28;20217;-76
2023/06/02 04:45:16;;;;;;;12.50;4.17;;;11.70;1.00;;;;;;5095964;28;20209;-75
2023/06/02 04:47:42;;;;;;;13.60;3.90;;;11.70;1.00;;;;;;5101145;28;20194;-75
2023/06/02 04:50:09;;;;;;;7.30;3.30;;;11.70;99.90;;;;;;5095365;28;20177;-76
2023/06/02 04:52:39;;;;;;;8.73;3.80;;;11.70;1.00;;;;;;5093882;28;20174;-75
2023/06/02 04:55:08;;;;;;;6.10;2.80;;;11.70;1.00;;;;;;5094954;28;20204;-75
2023/06/02 04:57:34;;;;;;;9.73;3.60;;;11.70;1.00;;;;;;5102218;28;20244;-75
2023/06/02 05:00:00;;;;;;;8.97;4.00;;;11.70;1.00;;;;;;5114590;28;20557;-76
2023/06/02 05:02:26;;;;;;;12.57;3.03;;;11.80;1.00;;;;;;5115579;27;20182;-76
2023/06/02 05:04:51;;;;;;;13.50;3.07;;;11.80;1.00;;;;;;5115354;28;20281;-76
2023/06/02 05:07:17;;;;;;;12.73;3.13;;;11.70;1.00;;;;;;5113332;28;20228;-76
2023/06/02 05:09:43;;;;;;;7.77;3.03;;;11.60;1.00;;;;;;5105774;28;20264;-76
2023/06/02 05:12:09;;;;;;;9.40;3.80;;;11.70;1.00;;;;;;5094686;28;20162;-76
2023/06/02 05:14:36;;;;;;;9.27;2.97;;;11.70;99.90;;;;;;5097824;28;20203;-76
2023/06/02 05:17:02;;;;;;;16.00;3.90;;;11.60;1.00;;;;;;5095833;28;20270;-75
2023/06/02 05:19:27;;;;;;;6.67;2.50;;;11.70;99.90;;;;;;5094422;28;20174;-76
2023/06/02 05:21:53;;;;;;;8.97;4.03;;;11.70;1.00;;;;;;5093481;28;20732;-77
2023/06/02 05:24:19;;;;;;;10.43;3.37;;;11.70;99.90;;;;;;5095497;28;20166;-76
2023/06/02 05:26:44;;;;;;;7.97;3.37;;;11.70;99.90;;;;;;5103089;28;20223;-77
2023/06/02 05:29:10;;;;;;;10.27;2.90;;;11.70;99.90;;;;;;5114893;28;20169;-76
2023/06/02 05:31:35;;;;;;;7.37;2.90;;;11.60;88.60;;;;;;5114499;28;20603;-76
2023/06/02 05:34:01;;;;;;;10.70;3.10;;;11.70;99.90;;;;;;5114316;28;20671;-77
2023/06/02 05:36:26;;;;;;;8.20;3.13;;;11.70;99.90;;;;;;5108801;28;20202;-77
2023/06/02 05:38:52;;;;;;;12.23;2.73;;;11.70;99.90;;;;;;5105521;28;20234;-76
2023/06/02 05:41:17;;;;;;;11.63;3.00;;;11.80;99.90;;;;;;5114407;28;20608;-77
2023/06/02 05:43:43;;;;;;;10.90;3.30;;;11.80;99.90;;;;;;5109414;28;20626;-77
2023/06/02 05:46:11;;;;;;;10.10;2.80;;;11.80;99.90;;;;;;5093744;28;20198;-77
2023/06/02 05:48:38;;;;;;;12.57;3.20;;;11.80;99.90;;;;;;5095203;28;20279;-77
2023/06/02 05:51:04;;;;;;;11.77;3.80;;;11.80;38.70;;;;;;5094546;28;20189;-77
2023/06/02 05:53:29;;;;;;;10.33;3.53;;;11.80;99.90;;;;;;5106155;28;20174;-77
2023/06/02 05:55:55;;;;;;;16.27;3.67;;;11.90;99.90;;;;;;5094471;28;20186;-77
2023/06/02 05:58:21;;;;;;;11.13;3.40;;;11.90;99.90;;;;;;5100727;28;20223;-77
2023/06/02 06:00:46;;;;;;;12.17;4.63;;;11.90;99.90;;;;;;5093580;28;20285;-77
2023/06/02 06:03:13;;;;;;;12.27;3.73;;;11.80;1.00;;;;;;5098190;28;20662;-76
2023/06/02 06:05:39;;;;;;;12.73;4.20;;;11.80;1.00;;;;;;5097463;28;20192;-76
2023/06/02 06:08:04;;;;;;;12.63;4.40;;;11.80;1.00;;;;;;5096939;28;20202;-76
2023/06/02 06:10:30;;;;;;;9.20;4.60;;;11.90;25.90;;;;;;5115261;28;20180;-76
2023/06/02 06:12:55;;;;;;;12.67;5.53;;;11.90;1.00;;;;;;5108598;28;20292;-76
2023/06/02 06:15:21;;;;;;;14.67;5.57;;;11.90;64.80;;;;;;5096985;28;20533;-76
2023/06/02 06:17:51;;;;;;;12.07;5.57;;;12.00;72.80;;;;;;5094472;28;20185;-77
2023/06/02 06:20:18;;;;;;;15.13;7.47;;;12.00;1.00;;;;;;5096009;28;20662;-76
2023/06/02 06:22:44;;;;;;;12.73;6.70;;;11.90;1.00;;;;;;5095419;28;20690;-74
2023/06/02 06:25:10;;;;;;;15.23;5.80;;;11.90;1.00;;;;;;5096497;28;20285;-76
2023/06/02 06:27:36;;;;;;;14.60;5.97;;;12.00;1.00;;;;;;5096842;28;20205;-77
2023/06/02 06:30:03;;;;;;;14.63;6.13;;;12.10;1.00;;;;;;5096640;28;20162;-77
2023/06/02 06:32:28;;;;;;;12.10;5.60;;;12.10;1.00;;;;;;5096549;28;20257;-78
2023/06/02 06:34:54;;;;;;;9.93;5.07;;;12.10;1.00;;;;;;5104546;28;20660;-77
2023/06/02 06:37:19;;;;;;;12.70;5.10;;;12.20;1.00;;;;;;5101289;28;20595;-78
2023/06/02 06:39:45;;;;;;;13.77;4.20;;;12.10;1.00;;;;;;5096886;28;20174;-77
2023/06/02 06:42:10;;;;;;;9.57;3.70;;;12.10;1.00;;;;;;5095521;28;20175;-76
2023/06/02 06:44:39;;;;;;;11.13;3.33;;;12.00;1.00;;;;;;5112843;28;20188;-76
2023/06/02 06:47:05;;;;;;;10.17;3.50;;;12.00;1.00;;;;;;5111669;28;20201;-77
2023/06/02 06:49:31;;;;;;;15.07;3.77;;;12.10;1.00;;;;;;5103976;28;20174;-76
2023/06/02 06:51:56;;;;;;;9.17;3.77;;;12.10;1.00;;;;;;5093059;28;20170;-77
2023/06/02 06:54:22;;;;;;;18.03;4.93;;;12.20;1.00;;;;;;5095780;28;20267;-77
2023/06/02 06:56:48;;;;;;;11.47;4.63;;;12.20;1.00;;;;;;5112952;28;20594;-76
2023/06/02 06:59:13;;;;;;;14.10;5.90;;;12.30;1.00;;;;;;5113168;28;20710;-76
2023/06/02 07:01:39;;;;;;;13.57;5.50;;;12.30;1.00;;;;;;5113675;28;20240;-77
2023/06/02 07:04:05;;;;;;;12.87;6.80;;;12.30;1.00;;;;;;5113502;28;20172;-77
2023/06/02 07:06:31;;;;;;;13.90;6.00;;;12.30;1.00;;;;;;5113076;28;20185;-76
2023/06/02 07:08:57;;;;;;;7.23;4.80;;;12.40;1.00;;;;;;5113332;28;20189;-76
2023/06/02 07:11:22;;;;;;;10.73;4.67;;;12.40;1.00;;;;;;5111806;28;20545;-76
2023/06/02 07:13:48;;;;;;;9.67;4.43;;;12.40;1.00;;;;;;5113189;28;20180;-76
2023/06/02 07:16:13;;;;;;;13.40;5.10;;;12.40;1.00;;;;;;5113234;28;20215;-75
2023/06/02 07:18:39;;;;;;;12.03;5.63;;;12.40;1.00;;;;;;5113213;28;20173;-77
2023/06/02 07:21:04;;;;;;;9.77;4.70;;;12.40;99.90;;;;;;5113113;28;20223;-74
2023/06/02 07:23:30;;;;;;;10.03;4.50;;;12.40;1.00;;;;;;5111337;28;20189;-76
2023/06/02 07:25:56;;;;;;;13.33;4.97;;;12.30;1.00;;;;;;5112621;28;20251;-76
2023/06/02 07:28:21;;;;;;;13.17;5.27;;;12.40;1.00;;;;;;5111324;28;20247;-76
2023/06/02 07:30:52;;;;;;;11.40;5.13;;;12.40;1.00;;;;;;5112748;28;20166;-76
2023/06/02 07:33:18;;;;;;;11.47;4.43;;;12.40;1.00;;;;;;5112738;28;20634;-76
2023/06/02 07:35:44;;;;;;;9.63;4.53;;;12.50;1.00;;;;;;5111219;28;20189;-76
2023/06/02 07:38:10;;;;;;;9.70;4.73;;;12.50;1.00;;;;;;5112968;28;20248;-76
2023/06/02 07:40:35;;;;;;;6.67;4.77;;;12.50;1.00;;;;;;5112790;28;20638;-76
2023/06/02 07:43:01;;;;;;;13.03;5.03;;;12.50;99.90;;;;;;5111538;28;20180;-76
2023/06/02 07:45:26;;;;;;;12.20;5.40;;;12.60;1.00;;;;;;5116720;28;20191;-77
2023/06/02 07:47:52;;;;;;;13.43;6.27;;;12.50;1.00;;;;;;5116876;28;20197;-77
2023/06/02 07:50:18;;;;;;;8.47;5.50;;;12.60;99.90;;;;;;5116622;28;20196;-76
2023/06/02 07:52:45;;;;;;;16.23;7.20;;;12.60;99.90;;;;;;5118306;28;20467;-78
2023/06/02 07:55:11;;;;;;;12.63;7.13;;;12.80;99.90;;;;;;5118243;28;20224;-78
2023/06/02 07:57:37;;;;;;;16.50;9.13;;;12.80;1.00;;;;;;5119620;28;20177;-77
2023/06/02 08:00:15;;;;;;;14.70;8.63;;;12.90;99.90;;;;;;5119419;28;20650;-78
2023/06/02 08:02:46;;;;;;;15.50;8.33;;;12.90;1.00;;;;;;5120014;28;20200;-77
2023/06/02 08:05:16;;;;;;;11.27;8.33;;;13.00;99.90;;;;;;5121180;28;20200;-77
2023/06/02 08:07:41;;;;;;;13.33;8.17;;;12.90;99.90;;;;;;5132672;28;20198;-78
2023/06/02 08:10:08;;;;;;;13.27;7.53;;;12.90;99.90;;;;;;5130354;28;20168;-78
2023/06/02 08:12:34;;;;;;;17.27;8.43;;;13.00;99.90;;;;;;5125981;28;20189;-78
2023/06/02 08:15:00;;;;;;;19.37;8.20;;;12.90;99.90;;;;;;5124267;28;20213;-78
2023/06/02 08:17:29;;;;;;;13.47;7.40;;;13.00;99.90;;;;;;5125802;28;20177;-78
2023/06/02 08:19:59;;;;;;;10.87;6.93;;;13.10;99.90;;;;;;5125464;28;20191;-79
2023/06/02 08:22:30;;;;;;;16.03;7.80;;;13.10;99.90;;;;;;5121889;28;20189;-78
2023/06/02 08:24:56;;;;;;;13.03;7.00;;;13.20;99.90;;;;;;5119748;28;20203;-77
2023/06/02 08:27:23;;;;;;;14.87;8.43;;;13.20;1.00;;;;;;5106618;28;20267;-77
2023/06/02 08:29:51;;;;;;;15.30;9.13;;;13.20;99.90;;;;;;5096818;28;20198;-77
2023/06/02 08:32:17;;;;;;;14.27;8.87;;;13.20;99.90;;;;;;5097356;28;20174;-76
2023/06/02 08:34:50;;;;;;;10.97;8.63;;;13.20;99.90;;;;;;5097073;28;20167;-77
2023/06/02 08:37:16;;;;;;;13.60;8.73;;;13.20;99.90;;;;;;5097560;28;20178;-77
2023/06/02 08:39:46;;;;;;;16.30;9.20;;;13.30;99.90;;;;;;5097165;28;20174;-76
2023/06/02 08:42:13;;;;;;;13.70;9.03;;;13.40;1.00;;;;;;5097089;28;20227;-76
2023/06/02 08:44:40;;;;;;;16.83;9.27;;;13.50;99.90;;;;;;5097360;28;20182;-76
2023/06/02 08:47:10;;;;;;;15.23;9.43;;;13.60;99.90;;;;;;5098229;28;20175;-76
2023/06/02 08:49:36;;;;;;;15.30;9.80;;;13.70;99.90;;;;;;5096094;28;20177;-77
2023/06/02 08:52:10;;;;;;;18.50;10.07;;;13.70;99.90;;;;;;5096070;28;20171;-76
2023/06/02 08:54:36;;;;;;;12.23;9.97;;;13.80;99.90;;;;;;5095368;28;20158;-77
2023/06/02 08:57:04;;;;;;;15.03;9.30;;;13.80;99.90;;;;;;5095153;28;20191;-77
2023/06/02 08:59:30;;;;;;;14.20;9.40;;;14.00;84.10;;;;;;5097379;28;20177;-77
2023/06/02 09:01:55;;;;;;;17.03;10.20;;;14.00;99.90;;;;;;5094171;28;20269;-77
2023/06/02 09:04:21;;;;;;;14.20;8.93;;;14.10;99.90;;;;;;5095236;28;20174;-77
2023/06/02 09:06:49;;;;;;;11.90;7.47;;;14.10;8.40;;;;;;5095786;28;20221;-75
2023/06/02 09:09:15;;;;;;;11.80;8.27;;;14.10;91.90;;;;;;5096685;28;20245;-75
2023/06/02 09:11:57;;;;;;;15.63;8.37;;;14.10;99.90;;;;;;5095208;28;20666;-76
2023/06/02 09:14:23;;;;;;;10.87;9.13;;;14.10;1.00;;;;;;5095267;28;20495;-76
2023/06/02 09:16:49;;;;;;;13.77;9.13;;;14.00;17.50;;;;;;5095043;28;20189;-76
2023/06/02 09:19:14;;;;;;;12.40;9.17;;;14.10;1.00;;;;;;5095247;28;20175;-74
2023/06/02 09:21:40;;;;;;;11.67;8.23;;;14.10;1.00;;;;;;5094952;28;20174;-75
2023/06/02 09:24:06;;;;;;;17.93;10.00;;;14.10;1.00;;;;;;5093625;28;20167;-75
2023/06/02 09:26:31;;;;;;;15.63;9.50;;;14.20;1.00;;;;;;5093228;28;20194;-75
2023/06/02 09:29:09;;;;;;;14.40;8.73;;;14.30;40.60;;;;;;5093398;28;20213;-76
2023/06/02 09:31:55;;;;;;;13.90;8.30;;;14.40;1.00;;;;;;5093392;28;20573;-76
2023/06/02 09:34:22;;;;;;;15.27;8.00;;;14.40;1.00;;;;;;5094321;28;20257;-76
2023/06/02 09:36:49;;;;;;;10.97;8.53;;;14.40;1.00;;;;;;5094393;28;20186;-75
2023/06/02 09:39:30;;;;;;;10.33;7.63;;;14.40;1.00;;;;;;5094278;28;20642;-75
2023/06/02 09:41:55;;;;;;;14.00;8.63;;;14.50;1.00;;;;;;5094544;28;20170;-75
2023/06/02 09:44:23;;;;;;;13.97;8.10;;;14.60;1.00;;;;;;5094611;28;20588;-75
2023/06/02 09:46:48;;;;;;;15.90;7.83;;;14.60;1.00;;;;;;5094000;28;20201;-76
2023/06/02 09:49:14;;;;;;;12.03;7.20;;;14.80;1.00;;;;;;5092598;28;20581;-76
2023/06/02 09:51:40;;;;;;;9.43;6.60;;;14.90;1.00;;;;;;5092787;28;20208;-76
2023/06/02 09:54:07;;;;;;;10.47;6.03;;;14.90;1.00;;;;;;5094335;28;20194;-76
2023/06/02 09:56:37;;;;;;;10.93;5.67;;;15.00;1.00;;;;;;5093852;28;20251;-76
2023/06/02 09:59:06;;;;;;;10.27;5.60;;;14.80;1.00;;;;;;5092465;28;20658;-75
2023/06/02 10:01:36;;;;;;;13.17;4.63;;;14.90;1.00;;;;;;5094207;28;20177;-76
2023/06/02 10:04:05;;;;;;;11.43;4.80;;;15.00;1.00;;;;;;5093990;28;20254;-76
2023/06/02 10:07:34;;;;;;;8.27;4.57;;;15.10;1.00;;;;;;5093032;28;20214;-76
2023/06/02 10:10:22;;;;;;;9.37;4.90;;;15.30;1.00;;;;;;5031379;28;20564;-76
2023/06/02 10:13:09;;;;;;;8.97;4.77;;;15.40;1.00;;;;;;5031769;28;20161;-77
2023/06/02 10:16:01;;;;;;;10.87;5.30;;;15.40;99.90;;;;;;5089475;28;20206;-77
2023/06/02 10:18:45;;;;;;;10.67;4.23;;;15.60;1.00;;;;;;5093646;28;20162;-77
2023/06/02 10:21:32;;;;;;;9.73;4.37;;;15.60;1.00;;;;;;5096793;28;20154;-77
2023/06/02 10:24:18;;;;;;;6.77;3.97;;;15.60;1.00;;;;;;5091907;28;20175;-77
2023/06/02 10:27:08;;;;;;;9.57;3.37;;;15.70;1.00;;;;;;5093418;28;20269;-77
2023/06/02 10:29:35;;;;;;;10.03;3.30;;;15.80;1.00;;;;;;5093289;28;20652;-76
2023/06/02 10:32:19;;;;;;;10.03;3.07;;;15.60;1.00;;;;;;5091892;28;20201;-77
2023/06/02 10:34:50;;;;;;;9.47;2.87;;;15.70;1.00;;;;;;5091805;28;20174;-77
2023/06/02 10:37:16;;;;;;;8.07;2.27;;;15.50;1.00;;;;;;5091800;28;20167;-77
2023/06/02 10:39:42;;;;;;;11.40;3.40;;;15.50;1.00;;;;;;5093197;28;20269;-76
2023/06/02 10:42:09;;;;;;;5.37;2.67;;;15.60;1.00;;;;;;5093279;28;20636;-77
2023/06/02 10:44:34;;;;;;;12.53;2.73;;;15.90;99.90;;;;;;5093060;28;20170;-77
2023/06/02 10:47:18;;;;;;;10.50;2.83;;;16.00;1.00;;;;;;5092811;28;20565;-77
2023/06/02 10:49:54;;;;;;;7.50;3.17;;;16.10;1.00;;;;;;5091775;28;20287;-77
2023/06/02 10:52:21;;;;;;;4.70;2.43;;;16.30;1.00;;;;;;5093024;28;20163;-77
2023/06/02 10:55:12;;;;;;;8.47;2.60;;;16.20;1.00;;;;;;5091506;28;20174;-77
2023/06/02 10:57:57;;;;;;;11.97;2.90;;;16.20;1.00;;;;;;5091580;28;20178;-76
2023/06/02 11:00:40;;;;;;;9.50;3.00;;;16.20;1.00;;;;;;5093163;28;20651;-77
2023/06/02 11:03:14;;;;;;;7.47;3.30;;;16.30;1.00;;;;;;5093105;28;20159;-77
2023/06/02 11:05:41;;;;;;;20.20;3.30;;;16.30;1.00;;;;;;5091512;28;20193;-77
2023/06/02 11:08:18;;;;;;;8.23;2.40;;;16.50;1.00;;;;;;5093228;28;20200;-77
2023/06/02 11:10:54;;;;;;;9.60;2.93;;;16.70;1.00;;;;;;5091739;28;20166;-78
2023/06/02 11:13:20;;;;;;;12.13;3.57;;;16.60;1.00;;;;;;5092896;28;20157;-77
2023/06/02 11:15:58;;;;;;;8.17;2.70;;;16.70;1.00;;;;;;5093075;28;20620;-77
2023/06/02 11:18:31;;;;;;;7.47;3.13;;;16.80;1.00;;;;;;5091526;28;20170;-77
2023/06/02 11:20:58;;;;;;;12.57;3.10;;;16.80;1.00;;;;;;5093062;28;20160;-77
2023/06/02 11:23:25;;;;;;;11.30;3.07;;;16.90;1.00;;;;;;5093145;28;20287;-77
2023/06/02 11:26:11;;;;;;;7.10;2.67;;;16.90;1.00;;;;;;5091710;28;20214;-77
2023/06/02 11:28:36;;;;;;;10.67;2.63;;;16.90;1.00;;;;;;5092758;28;20266;-78
2023/06/02 11:31:14;;;;;;;11.53;3.83;;;17.00;1.00;;;;;;5091769;28;20167;-77
2023/06/02 11:33:50;;;;;;;9.83;3.37;;;17.10;1.00;;;;;;5092894;28;20247;-78
2023/06/02 11:36:27;;;;;;;13.47;3.87;;;17.30;1.00;;;;;;5091661;28;20198;-77
2023/06/02 11:39:07;;;;;;;17.23;3.47;;;17.50;1.00;;;;;;5093341;28;20170;-77
2023/06/02 11:41:33;;;;;;;8.47;3.20;;;17.60;1.00;;;;;;5092195;28;20166;-78
2023/06/02 11:44:07;;;;;;;7.50;2.70;;;17.60;99.90;;;;;;5092910;28;20258;-78
2023/06/02 11:46:33;;;;;;;10.33;3.33;;;17.70;1.00;;;;;;5093258;28;20272;-77
2023/06/02 11:48:59;;;;;;;11.83;3.13;;;17.80;1.00;;;;;;5091629;28;20206;-77
2023/06/02 11:51:25;;;;;;;6.07;3.27;;;17.90;1.00;;;;;;5093339;28;20177;-79
2023/06/02 11:54:02;;;;;;;8.43;2.97;;;18.10;1.00;;;;;;5100942;28;20166;-79
2023/06/02 11:56:29;;;;;;;9.13;3.10;;;18.00;99.90;;;;;;5098351;28;20193;-79
2023/06/02 11:58:55;;;;;;;11.33;3.03;;;18.00;99.90;;;;;;5099387;28;20659;-79
2023/06/02 12:01:21;;;;;;;8.67;3.00;;;18.00;99.90;;;;;;5098813;28;20175;-78
2023/06/02 12:04:03;;;;;;;7.07;3.10;;;18.10;99.90;;;;;;5098233;28;20171;-79
2023/06/02 12:06:31;;;;;;;10.03;3.70;;;18.00;99.90;;;;;;5097745;28;20228;-79
2023/06/02 12:09:11;;;;;;;8.03;3.20;;;18.00;99.90;;;;;;5097449;28;20202;-80
2023/06/02 12:11:37;;;;;;;9.10;2.93;;;18.10;99.90;;;;;;5094584;28;20569;-78
2023/06/02 12:14:05;;;;;;;9.13;3.07;;;18.10;1.00;;;;;;5097530;28;20226;-77
2023/06/02 12:16:31;;;;;;;9.40;2.77;;;18.10;99.90;;;;;;5100714;28;20536;-77
2023/06/02 12:19:31;;;;;;;9.70;3.20;;;18.20;1.00;;;;;;5103965;28;20170;-78
2023/06/02 12:22:10;;;;;;;6.97;2.90;;;18.30;1.00;;;;;;5028095;28;20200;-78
2023/06/02 12:24:37;;;;;;;11.50;3.00;;;18.30;99.90;;;;;;5095882;28;20182;-78
2023/06/02 12:27:04;;;;;;;12.30;2.60;;;18.30;99.90;;;;;;5103036;28;20195;-78
2023/06/02 12:29:30;;;;;;;6.60;2.50;;;18.40;99.90;;;;;;5102271;28;20190;-76
2023/06/02 12:32:01;;;;;;;12.77;2.97;;;18.40;99.90;;;;;;5106047;28;20177;-77
2023/06/02 12:34:27;;;;;;;10.47;3.07;;;18.60;99.90;;;;;;5100889;28;20162;-77
2023/06/02 12:36:53;;;;;;;8.20;2.80;;;18.30;99.90;;;;;;5100560;28;20193;-78
2023/06/02 12:39:18;;;;;;;7.70;2.50;;;18.40;99.90;;;;;;5102855;28;20171;-78
2023/06/02 12:41:44;;;;;;;7.83;2.73;;;18.50;1.00;;;;;;5101447;28;20659;-78
2023/06/02 12:44:10;;;;;;;21.03;3.57;;;18.60;1.00;;;;;;5102032;28;20190;-77
2023/06/02 12:46:35;;;;;;;9.23;3.90;;;18.70;99.90;;;;;;5100372;28;20205;-78
2023/06/02 12:49:03;;;;;;;8.30;2.90;;;18.50;99.90;;;;;;5101279;28;20194;-77
2023/06/02 12:51:28;;;;;;;9.57;2.90;;;18.40;99.90;;;;;;5096055;28;20661;-75
2023/06/02 12:53:54;;;;;;;10.07;3.43;;;18.30;99.90;;;;;;5097330;28;20178;-78